Webb, Iowa
Current Conditions -  °F | °C
As of 12:53 AM on Saturday 01 Nov 2014 (Local Time) from KSPW Reporting Station
Clear Clear  
Wind Chill: 17°   Ceiling: Unl
Heat Index: 17°   Visibility: 10mi
Dew Point: 14°   Wind: 3mph
Humidity: 88%   Direction: 230°SW
Pressure: 30.46"   Gusts: NA
Location:  42.95°N, 95.01°W
Report Text: KSPW 010553Z AUTO 23003KT 10SM CLR M08/M10 A3046 RMK AO2 SLP334 T10831100 10011 21083 400501083 53000 TSNO
Loading
Personal Weather Stations






























Interactive Weather Map New forecast layout! Learn more

10-Day Weather Forecast

Advertisements
Track Severe Weather on mobile